sensor_id;sensor_type;location;lat;lon;timestamp;P1;durP1;ratioP1;P2;durP2;ratioP2
14247;SDS011;7208;49.826;6.004;2024-03-23T00:51:22;7.50;;;5.60;;
14247;SDS011;7208;49.826;6.004;2024-03-23T00:56:15;10.03;;;5.10;;
14247;SDS011;7208;49.826;6.004;2024-03-23T00:58:41;9.03;;;5.53;;
14247;SDS011;7208;49.826;6.004;2024-03-23T01:01:07;7.47;;;4.70;;
14247;SDS011;7208;49.826;6.004;2024-03-23T01:03:33;4.23;;;3.37;;
14247;SDS011;7208;49.826;6.004;2024-03-23T01:05:59;6.43;;;3.93;;
14247;SDS011;7208;49.826;6.004;2024-03-23T01:08:25;6.23;;;3.63;;
14247;SDS011;7208;49.826;6.004;2024-03-23T01:10:58;4.10;;;2.93;;
14247;SDS011;7208;49.826;6.004;2024-03-23T01:13:25;4.10;;;2.77;;
14247;SDS011;7208;49.826;6.004;2024-03-23T01:15:51;1.63;;;1.53;;
14247;SDS011;7208;49.826;6.004;2024-03-23T01:18:18;1.00;;;0.87;;
14247;SDS011;7208;49.826;6.004;2024-03-23T01:20:44;1.53;;;1.20;;
14247;SDS011;7208;49.826;6.004;2024-03-23T01:23:10;0.67;;;0.67;;
14247;SDS011;7208;49.826;6.004;2024-03-23T01:25:36;0.50;;;0.50;;
14247;SDS011;7208;49.826;6.004;2024-03-23T01:28:02;0.40;;;0.40;;
14247;SDS011;7208;49.826;6.004;2024-03-23T01:30:28;0.37;;;0.37;;
14247;SDS011;7208;49.826;6.004;2024-03-23T01:32:55;0.30;;;0.30;;
14247;SDS011;7208;49.826;6.004;2024-03-23T01:35:21;0.40;;;0.40;;
14247;SDS011;7208;49.826;6.004;2024-03-23T01:37:48;0.47;;;0.47;;
14247;SDS011;7208;49.826;6.004;2024-03-23T01:40:15;0.40;;;0.40;;
14247;SDS011;7208;49.826;6.004;2024-03-23T01:42:54;0.57;;;0.57;;
14247;SDS011;7208;49.826;6.004;2024-03-23T01:45:21;0.50;;;0.40;;
14247;SDS011;7208;49.826;6.004;2024-03-23T01:47:48;0.40;;;0.40;;
14247;SDS011;7208;49.826;6.004;2024-03-23T01:50:14;0.37;;;0.37;;
14247;SDS011;7208;49.826;6.004;2024-03-23T01:52:41;0.60;;;0.50;;
14247;SDS011;7208;49.826;6.004;2024-03-23T01:55:07;0.40;;;0.40;;
14247;SDS011;7208;49.826;6.004;2024-03-23T01:57:33;0.40;;;0.40;;
14247;SDS011;7208;49.826;6.004;2024-03-23T01:59:59;0.33;;;0.33;;
14247;SDS011;7208;49.826;6.004;2024-03-23T02:02:25;0.60;;;0.60;;
14247;SDS011;7208;49.826;6.004;2024-03-23T02:04:52;0.60;;;0.60;;
14247;SDS011;7208;49.826;6.004;2024-03-23T02:07:18;0.50;;;0.50;;
14247;SDS011;7208;49.826;6.004;2024-03-23T02:09:44;0.50;;;0.50;;
14247;SDS011;7208;49.826;6.004;2024-03-23T02:12:10;0.60;;;0.60;;
14247;SDS011;7208;49.826;6.004;2024-03-23T02:14:44;0.40;;;0.40;;
14247;SDS011;7208;49.826;6.004;2024-03-23T02:17:10;0.50;;;0.50;;
14247;SDS011;7208;49.826;6.004;2024-03-23T02:19:36;0.57;;;0.57;;
14247;SDS011;7208;49.826;6.004;2024-03-23T02:22:02;0.47;;;0.47;;
14247;SDS011;7208;49.826;6.004;2024-03-23T02:24:29;1.03;;;0.67;;
14247;SDS011;7208;49.826;6.004;2024-03-23T02:26:55;0.80;;;0.80;;
14247;SDS011;7208;49.826;6.004;2024-03-23T02:29:21;0.80;;;0.80;;
14247;SDS011;7208;49.826;6.004;2024-03-23T02:31:49;0.50;;;0.50;;
14247;SDS011;7208;49.826;6.004;2024-03-23T02:34:41;0.57;;;0.57;;
14247;SDS011;7208;49.826;6.004;2024-03-23T02:37:11;0.90;;;0.90;;
14247;SDS011;7208;49.826;6.004;2024-03-23T02:39:37;0.57;;;0.57;;
14247;SDS011;7208;49.826;6.004;2024-03-23T02:42:03;1.20;;;0.53;;
14247;SDS011;7208;49.826;6.004;2024-03-23T02:44:29;0.50;;;0.50;;
14247;SDS011;7208;49.826;6.004;2024-03-23T02:46:56;0.50;;;0.50;;
14247;SDS011;7208;49.826;6.004;2024-03-23T02:49:22;0.67;;;0.67;;
14247;SDS011;7208;49.826;6.004;2024-03-23T02:51:48;0.50;;;0.50;;
14247;SDS011;7208;49.826;6.004;2024-03-23T02:54:14;0.60;;;0.60;;
14247;SDS011;7208;49.826;6.004;2024-03-23T02:56:40;0.50;;;0.50;;
14247;SDS011;7208;49.826;6.004;2024-03-23T02:59:06;0.50;;;0.50;;
14247;SDS011;7208;49.826;6.004;2024-03-23T03:01:32;0.80;;;0.60;;
14247;SDS011;7208;49.826;6.004;2024-03-23T03:04:37;0.43;;;0.40;;
14247;SDS011;7208;49.826;6.004;2024-03-23T03:07:03;2.73;;;0.40;;
14247;SDS011;7208;49.826;6.004;2024-03-23T03:09:29;0.50;;;0.50;;
14247;SDS011;7208;49.826;6.004;2024-03-23T03:11:55;0.60;;;0.60;;
14247;SDS011;7208;49.826;6.004;2024-03-23T03:14:21;0.73;;;0.60;;
14247;SDS011;7208;49.826;6.004;2024-03-23T03:16:47;0.50;;;0.50;;
14247;SDS011;7208;49.826;6.004;2024-03-23T03:19:13;0.40;;;0.40;;
14247;SDS011;7208;49.826;6.004;2024-03-23T03:21:41;0.50;;;0.50;;
14247;SDS011;7208;49.826;6.004;2024-03-23T03:24:07;0.30;;;0.30;;
14247;SDS011;7208;49.826;6.004;2024-03-23T03:26:33;0.60;;;0.60;;
14247;SDS011;7208;49.826;6.004;2024-03-23T03:28:59;0.50;;;0.30;;
14247;SDS011;7208;49.826;6.004;2024-03-23T03:31:26;0.60;;;0.60;;
14247;SDS011;7208;49.826;6.004;2024-03-23T03:34:15;0.50;;;0.50;;
14247;SDS011;7208;49.826;6.004;2024-03-23T03:36:41;0.50;;;0.50;;
14247;SDS011;7208;49.826;6.004;2024-03-23T03:39:07;0.60;;;0.60;;
14247;SDS011;7208;49.826;6.004;2024-03-23T03:41:33;0.73;;;0.73;;
14247;SDS011;7208;49.826;6.004;2024-03-23T03:43:59;0.77;;;0.57;;
14247;SDS011;7208;49.826;6.004;2024-03-23T03:46:28;1.23;;;0.80;;
14247;SDS011;7208;49.826;6.004;2024-03-23T03:48:54;1.50;;;1.10;;
14247;SDS011;7208;49.826;6.004;2024-03-23T03:51:20;1.33;;;0.90;;
14247;SDS011;7208;49.826;6.004;2024-03-23T03:53:46;0.60;;;0.60;;
14247;SDS011;7208;49.826;6.004;2024-03-23T03:56:12;2.43;;;0.97;;
14247;SDS011;7208;49.826;6.004;2024-03-23T03:58:38;0.73;;;0.70;;
14247;SDS011;7208;49.826;6.004;2024-03-23T04:01:07;1.37;;;1.00;;
14247;SDS011;7208;49.826;6.004;2024-03-23T04:03:34;2.20;;;1.00;;
14247;SDS011;7208;49.826;6.004;2024-03-23T04:06:00;1.53;;;1.43;;
14247;SDS011;7208;49.826;6.004;2024-03-23T04:08:26;2.87;;;1.60;;
14247;SDS011;7208;49.826;6.004;2024-03-23T04:10:52;2.13;;;1.10;;
14247;SDS011;7208;49.826;6.004;2024-03-23T04:13:18;4.03;;;1.13;;
14247;SDS011;7208;49.826;6.004;2024-03-23T04:15:44;2.33;;;1.67;;
14247;SDS011;7208;49.826;6.004;2024-03-23T04:18:10;3.17;;;0.90;;
14247;SDS011;7208;49.826;6.004;2024-03-23T04:20:36;4.33;;;1.27;;
14247;SDS011;7208;49.826;6.004;2024-03-23T04:23:02;4.80;;;1.70;;
14247;SDS011;7208;49.826;6.004;2024-03-23T04:25:28;4.37;;;1.53;;
14247;SDS011;7208;49.826;6.004;2024-03-23T04:27:54;2.67;;;1.50;;
14247;SDS011;7208;49.826;6.004;2024-03-23T04:30:21;3.80;;;2.30;;
14247;SDS011;7208;49.826;6.004;2024-03-23T04:32:50;1.43;;;1.20;;
14247;SDS011;7208;49.826;6.004;2024-03-23T04:35:16;2.57;;;2.10;;
14247;SDS011;7208;49.826;6.004;2024-03-23T04:37:42;2.43;;;2.00;;
14247;SDS011;7208;49.826;6.004;2024-03-23T04:40:08;4.37;;;1.90;;
14247;SDS011;7208;49.826;6.004;2024-03-23T04:42:36;1.37;;;1.00;;
14247;SDS011;7208;49.826;6.004;2024-03-23T04:45:03;2.57;;;1.20;;
14247;SDS011;7208;49.826;6.004;2024-03-23T04:47:30;2.67;;;1.13;;
14247;SDS011;7208;49.826;6.004;2024-03-23T04:49:56;1.30;;;1.03;;
14247;SDS011;7208;49.826;6.004;2024-03-23T04:52:22;3.53;;;1.30;;
14247;SDS011;7208;49.826;6.004;2024-03-23T04:54:48;2.03;;;1.40;;
14247;SDS011;7208;49.826;6.004;2024-03-23T04:57:15;1.10;;;1.00;;
14247;SDS011;7208;49.826;6.004;2024-03-23T04:59:41;1.30;;;1.20;;
14247;SDS011;7208;49.826;6.004;2024-03-23T05:02:08;3.03;;;1.10;;
14247;SDS011;7208;49.826;6.004;2024-03-23T05:04:35;2.83;;;1.57;;
14247;SDS011;7208;49.826;6.004;2024-03-23T05:07:02;6.47;;;2.60;;
14247;SDS011;7208;49.826;6.004;2024-03-23T05:09:29;2.80;;;2.43;;
14247;SDS011;7208;49.826;6.004;2024-03-23T05:11:56;7.03;;;2.87;;
14247;SDS011;7208;49.826;6.004;2024-03-23T05:14:22;4.97;;;2.37;;
14247;SDS011;7208;49.826;6.004;2024-03-23T05:16:48;6.07;;;1.77;;
14247;SDS011;7208;49.826;6.004;2024-03-23T05:19:14;5.40;;;3.20;;
14247;SDS011;7208;49.826;6.004;2024-03-23T05:21:40;3.97;;;2.90;;
14247;SDS011;7208;49.826;6.004;2024-03-23T05:24:06;7.37;;;2.80;;
14247;SDS011;7208;49.826;6.004;2024-03-23T05:26:32;4.30;;;1.90;;
14247;SDS011;7208;49.826;6.004;2024-03-23T05:28:59;2.97;;;1.83;;
14247;SDS011;7208;49.826;6.004;2024-03-23T05:31:29;5.90;;;3.60;;
14247;SDS011;7208;49.826;6.004;2024-03-23T05:33:56;4.33;;;2.80;;
14247;SDS011;7208;49.826;6.004;2024-03-23T05:36:38;4.60;;;2.43;;
14247;SDS011;7208;49.826;6.004;2024-03-23T05:39:04;7.50;;;2.80;;
14247;SDS011;7208;49.826;6.004;2024-03-23T05:41:32;6.27;;;3.00;;
14247;SDS011;7208;49.826;6.004;2024-03-23T05:44:02;1.93;;;1.70;;
14247;SDS011;7208;49.826;6.004;2024-03-23T05:46:28;8.83;;;3.30;;
14247;SDS011;7208;49.826;6.004;2024-03-23T05:48:55;6.37;;;2.87;;
14247;SDS011;7208;49.826;6.004;2024-03-23T05:51:26;6.93;;;3.60;;
14247;SDS011;7208;49.826;6.004;2024-03-23T05:53:52;5.73;;;2.37;;
14247;SDS011;7208;49.826;6.004;2024-03-23T05:56:19;4.90;;;3.30;;
14247;SDS011;7208;49.826;6.004;2024-03-23T05:58:45;2.93;;;2.13;;
14247;SDS011;7208;49.826;6.004;2024-03-23T06:01:12;2.63;;;1.93;;
14247;SDS011;7208;49.826;6.004;2024-03-23T06:03:38;2.90;;;2.23;;
14247;SDS011;7208;49.826;6.004;2024-03-23T06:06:04;3.07;;;2.17;;
14247;SDS011;7208;49.826;6.004;2024-03-23T06:08:35;6.07;;;2.40;;
14247;SDS011;7208;49.826;6.004;2024-03-23T06:11:01;5.33;;;3.20;;
14247;SDS011;7208;49.826;6.004;2024-03-23T06:13:27;5.30;;;2.53;;
14247;SDS011;7208;49.826;6.004;2024-03-23T06:15:55;3.63;;;2.70;;
14247;SDS011;7208;49.826;6.004;2024-03-23T06:18:22;3.50;;;2.50;;
14247;SDS011;7208;49.826;6.004;2024-03-23T06:20:48;5.23;;;3.37;;
14247;SDS011;7208;49.826;6.004;2024-03-23T06:23:14;4.80;;;3.10;;
14247;SDS011;7208;49.826;6.004;2024-03-23T06:25:43;4.70;;;2.93;;
14247;SDS011;7208;49.826;6.004;2024-03-23T06:28:10;4.97;;;2.90;;
14247;SDS011;7208;49.826;6.004;2024-03-23T06:30:36;6.63;;;3.30;;
14247;SDS011;7208;49.826;6.004;2024-03-23T06:33:02;4.83;;;3.43;;
14247;SDS011;7208;49.826;6.004;2024-03-23T06:35:30;5.10;;;3.23;;
14247;SDS011;7208;49.826;6.004;2024-03-23T06:37:56;5.90;;;3.37;;
14247;SDS011;7208;49.826;6.004;2024-03-23T06:40:23;4.47;;;3.50;;
14247;SDS011;7208;49.826;6.004;2024-03-23T06:42:49;8.23;;;3.10;;
14247;SDS011;7208;49.826;6.004;2024-03-23T06:45:16;5.40;;;3.00;;
14247;SDS011;7208;49.826;6.004;2024-03-23T06:47:48;7.80;;;2.63;;
14247;SDS011;7208;49.826;6.004;2024-03-23T06:50:14;7.00;;;3.43;;
14247;SDS011;7208;49.826;6.004;2024-03-23T06:52:40;5.07;;;2.67;;
14247;SDS011;7208;49.826;6.004;2024-03-23T06:55:06;3.70;;;2.60;;
14247;SDS011;7208;49.826;6.004;2024-03-23T06:57:33;5.67;;;3.87;;
14247;SDS011;7208;49.826;6.004;2024-03-23T06:59:59;7.60;;;3.57;;
14247;SDS011;7208;49.826;6.004;2024-03-23T07:02:26;6.60;;;2.87;;
14247;SDS011;7208;49.826;6.004;2024-03-23T07:04:52;5.93;;;3.40;;
14247;SDS011;7208;49.826;6.004;2024-03-23T07:07:18;4.10;;;3.07;;
14247;SDS011;7208;49.826;6.004;2024-03-23T07:09:47;5.03;;;2.93;;
14247;SDS011;7208;49.826;6.004;2024-03-23T07:12:16;4.17;;;2.27;;
14247;SDS011;7208;49.826;6.004;2024-03-23T07:14:44;4.10;;;2.97;;
14247;SDS011;7208;49.826;6.004;2024-03-23T07:17:10;4.23;;;2.97;;
14247;SDS011;7208;49.826;6.004;2024-03-23T07:19:37;3.33;;;1.97;;
14247;SDS011;7208;49.826;6.004;2024-03-23T07:22:04;8.73;;;3.17;;
14247;SDS011;7208;49.826;6.004;2024-03-23T07:24:30;4.53;;;2.83;;
14247;SDS011;7208;49.826;6.004;2024-03-23T07:26:57;6.63;;;4.27;;
14247;SDS011;7208;49.826;6.004;2024-03-23T07:29:23;8.43;;;4.00;;
14247;SDS011;7208;49.826;6.004;2024-03-23T07:31:52;3.13;;;2.50;;
14247;SDS011;7208;49.826;6.004;2024-03-23T07:34:18;6.47;;;3.63;;
14247;SDS011;7208;49.826;6.004;2024-03-23T07:36:45;11.20;;;4.53;;
14247;SDS011;7208;49.826;6.004;2024-03-23T07:39:11;11.33;;;4.60;;
14247;SDS011;7208;49.826;6.004;2024-03-23T07:41:37;6.63;;;5.03;;
14247;SDS011;7208;49.826;6.004;2024-03-23T07:44:07;10.87;;;4.27;;
14247;SDS011;7208;49.826;6.004;2024-03-23T07:46:33;5.37;;;3.60;;
14247;SDS011;7208;49.826;6.004;2024-03-23T07:48:59;6.17;;;3.77;;
14247;SDS011;7208;49.826;6.004;2024-03-23T07:51:25;13.30;;;4.30;;
14247;SDS011;7208;49.826;6.004;2024-03-23T07:53:51;9.23;;;4.57;;
14247;SDS011;7208;49.826;6.004;2024-03-23T07:56:20;6.87;;;3.33;;
14247;SDS011;7208;49.826;6.004;2024-03-23T07:58:47;8.70;;;3.83;;
14247;SDS011;7208;49.826;6.004;2024-03-23T08:01:14;5.27;;;3.33;;
14247;SDS011;7208;49.826;6.004;2024-03-23T08:03:41;7.30;;;3.50;;
14247;SDS011;7208;49.826;6.004;2024-03-23T08:06:17;4.77;;;3.40;;
14247;SDS011;7208;49.826;6.004;2024-03-23T08:08:48;5.07;;;3.50;;
14247;SDS011;7208;49.826;6.004;2024-03-23T08:11:15;5.97;;;3.63;;
14247;SDS011;7208;49.826;6.004;2024-03-23T08:13:42;7.07;;;3.47;;
14247;SDS011;7208;49.826;6.004;2024-03-23T08:16:08;7.57;;;3.63;;
14247;SDS011;7208;49.826;6.004;2024-03-23T08:18:34;7.83;;;2.97;;
14247;SDS011;7208;49.826;6.004;2024-03-23T08:23:30;4.13;;;3.10;;
14247;SDS011;7208;49.826;6.004;2024-03-23T08:25:58;6.93;;;3.43;;
14247;SDS011;7208;49.826;6.004;2024-03-23T08:28:25;7.33;;;3.47;;
14247;SDS011;7208;49.826;6.004;2024-03-23T08:30:52;4.83;;;3.97;;
14247;SDS011;7208;49.826;6.004;2024-03-23T08:33:18;8.00;;;3.80;;
14247;SDS011;7208;49.826;6.004;2024-03-23T08:35:57;6.07;;;4.13;;
14247;SDS011;7208;49.826;6.004;2024-03-23T08:38:23;10.40;;;3.73;;
14247;SDS011;7208;49.826;6.004;2024-03-23T08:40:56;6.93;;;3.73;;
14247;SDS011;7208;49.826;6.004;2024-03-23T08:43:22;7.20;;;3.57;;
14247;SDS011;7208;49.826;6.004;2024-03-23T08:45:48;6.60;;;3.60;;
14247;SDS011;7208;49.826;6.004;2024-03-23T08:48:15;5.97;;;3.47;;
14247;SDS011;7208;49.826;6.004;2024-03-23T08:50:41;8.57;;;3.73;;
14247;SDS011;7208;49.826;6.004;2024-03-23T08:53:07;4.23;;;3.83;;
14247;SDS011;7208;49.826;6.004;2024-03-23T08:55:34;7.90;;;4.03;;
14247;SDS011;7208;49.826;6.004;2024-03-23T08:58:00;7.57;;;3.77;;
14247;SDS011;7208;49.826;6.004;2024-03-23T09:00:26;10.13;;;3.87;;
14247;SDS011;7208;49.826;6.004;2024-03-23T09:02:52;3.97;;;3.23;;
14247;SDS011;7208;49.826;6.004;2024-03-23T09:05:18;3.20;;;2.77;;
14247;SDS011;7208;49.826;6.004;2024-03-23T09:07:44;8.23;;;3.30;;
14247;SDS011;7208;49.826;6.004;2024-03-23T09:10:10;3.43;;;2.17;;
14247;SDS011;7208;49.826;6.004;2024-03-23T09:12:37;7.07;;;2.30;;
14247;SDS011;7208;49.826;6.004;2024-03-23T09:15:03;5.43;;;2.10;;
14247;SDS011;7208;49.826;6.004;2024-03-23T09:17:29;1.80;;;1.70;;
14247;SDS011;7208;49.826;6.004;2024-03-23T09:19:55;4.10;;;1.80;;
14247;SDS011;7208;49.826;6.004;2024-03-23T09:22:21;3.57;;;1.47;;
14247;SDS011;7208;49.826;6.004;2024-03-23T09:24:47;5.13;;;1.67;;
14247;SDS011;7208;49.826;6.004;2024-03-23T09:27:14;2.70;;;1.10;;
14247;SDS011;7208;49.826;6.004;2024-03-23T09:29:40;4.30;;;1.30;;
14247;SDS011;7208;49.826;6.004;2024-03-23T09:32:06;3.03;;;1.40;;
14247;SDS011;7208;49.826;6.004;2024-03-23T09:34:33;2.50;;;1.00;;
14247;SDS011;7208;49.826;6.004;2024-03-23T09:37:00;2.30;;;1.33;;
14247;SDS011;7208;49.826;6.004;2024-03-23T09:39:26;2.73;;;0.83;;
14247;SDS011;7208;49.826;6.004;2024-03-23T09:41:56;2.97;;;1.03;;
14247;SDS011;7208;49.826;6.004;2024-03-23T09:44:22;2.67;;;0.83;;
14247;SDS011;7208;49.826;6.004;2024-03-23T09:46:48;6.77;;;1.00;;
14247;SDS011;7208;49.826;6.004;2024-03-23T09:49:14;4.47;;;1.07;;
14247;SDS011;7208;49.826;6.004;2024-03-23T09:51:42;3.70;;;0.80;;
14247;SDS011;7208;49.826;6.004;2024-03-23T09:54:08;1.80;;;1.13;;
14247;SDS011;7208;49.826;6.004;2024-03-23T09:56:35;4.32;;;1.75;;
14247;SDS011;7208;49.826;6.004;2024-03-23T09:59:02;2.17;;;1.03;;
14247;SDS011;7208;49.826;6.004;2024-03-23T10:01:32;1.30;;;0.97;;
14247;SDS011;7208;49.826;6.004;2024-03-23T10:03:58;1.47;;;0.90;;
14247;SDS011;7208;49.826;6.004;2024-03-23T10:06:24;1.10;;;0.60;;
14247;SDS011;7208;49.826;6.004;2024-03-23T10:08:50;2.40;;;1.37;;
14247;SDS011;7208;49.826;6.004;2024-03-23T10:11:18;32.50;;;8.10;;
14247;SDS011;7208;49.826;6.004;2024-03-23T10:13:45;2.03;;;1.40;;
14247;SDS011;7208;49.826;6.004;2024-03-23T10:16:12;7.60;;;3.30;;
14247;SDS011;7208;49.826;6.004;2024-03-23T10:18:38;4.27;;;2.17;;
14247;SDS011;7208;49.826;6.004;2024-03-23T10:23:31;1.20;;;0.87;;
14247;SDS011;7208;49.826;6.004;2024-03-23T10:29:19;3.67;;;1.83;;
14247;SDS011;7208;49.826;6.004;2024-03-23T10:31:39;0.73;;;0.73;;
14247;SDS011;7208;49.826;6.004;2024-03-23T10:34:06;1.07;;;0.80;;
14247;SDS011;7208;49.826;6.004;2024-03-23T10:36:33;7.23;;;2.97;;
14247;SDS011;7208;49.826;6.004;2024-03-23T10:39:00;1.13;;;1.03;;
14247;SDS011;7208;49.826;6.004;2024-03-23T10:41:27;7.53;;;4.07;;
14247;SDS011;7208;49.826;6.004;2024-03-23T10:43:54;5.40;;;3.47;;
14247;SDS011;7208;49.826;6.004;2024-03-23T10:46:21;7.67;;;3.30;;
14247;SDS011;7208;49.826;6.004;2024-03-23T10:48:47;1.13;;;1.03;;
14247;SDS011;7208;49.826;6.004;2024-03-23T10:51:14;3.80;;;1.10;;
14247;SDS011;7208;49.826;6.004;2024-03-23T10:53:41;16.63;;;5.97;;
14247;SDS011;7208;49.826;6.004;2024-03-23T10:56:07;1.87;;;1.00;;
14247;SDS011;7208;49.826;6.004;2024-03-23T11:04:06;0.50;;;0.50;;
14247;SDS011;7208;49.826;6.004;2024-03-23T11:06:36;0.60;;;0.60;;
14247;SDS011;7208;49.826;6.004;2024-03-23T11:11:50;0.77;;;0.50;;
14247;SDS011;7208;49.826;6.004;2024-03-23T11:14:21;1.03;;;0.53;;
14247;SDS011;7208;49.826;6.004;2024-03-23T11:17:10;1.97;;;0.80;;
14247;SDS011;7208;49.826;6.004;2024-03-23T11:19:36;0.97;;;0.60;;
14247;SDS011;7208;49.826;6.004;2024-03-23T11:22:03;3.87;;;1.57;;
14247;SDS011;7208;49.826;6.004;2024-03-23T11:24:30;3.47;;;1.43;;
14247;SDS011;7208;49.826;6.004;2024-03-23T11:26:56;2.17;;;0.60;;
14247;SDS011;7208;49.826;6.004;2024-03-23T11:29:26;2.23;;;0.53;;
14247;SDS011;7208;49.826;6.004;2024-03-23T11:31:54;1.43;;;1.43;;
14247;SDS011;7208;49.826;6.004;2024-03-23T11:34:20;1.00;;;0.80;;
14247;SDS011;7208;49.826;6.004;2024-03-23T11:36:47;0.93;;;0.50;;
14247;SDS011;7208;49.826;6.004;2024-03-23T11:39:14;0.50;;;0.50;;
14247;SDS011;7208;49.826;6.004;2024-03-23T11:41:55;3.10;;;0.60;;
14247;SDS011;7208;49.826;6.004;2024-03-23T11:44:22;0.70;;;0.40;;
14247;SDS011;7208;49.826;6.004;2024-03-23T11:46:49;1.43;;;0.73;;
14247;SDS011;7208;49.826;6.004;2024-03-23T11:49:25;1.47;;;0.50;;
14247;SDS011;7208;49.826;6.004;2024-03-23T11:51:52;0.60;;;0.60;;
14247;SDS011;7208;49.826;6.004;2024-03-23T11:54:25;1.57;;;0.63;;
14247;SDS011;7208;49.826;6.004;2024-03-23T11:56:55;1.13;;;0.50;;
14247;SDS011;7208;49.826;6.004;2024-03-23T11:59:38;0.60;;;0.60;;
14247;SDS011;7208;49.826;6.004;2024-03-23T12:02:08;0.40;;;0.40;;
14247;SDS011;7208;49.826;6.004;2024-03-23T12:04:37;4.10;;;1.97;;
14247;SDS011;7208;49.826;6.004;2024-03-23T12:09:40;1.33;;;0.50;;
14247;SDS011;7208;49.826;6.004;2024-03-23T12:12:07;7.40;;;3.57;;
14247;SDS011;7208;49.826;6.004;2024-03-23T12:14:34;1.30;;;0.90;;
14247;SDS011;7208;49.826;6.004;2024-03-23T12:19:35;1.37;;;0.73;;
14247;SDS011;7208;49.826;6.004;2024-03-23T12:22:02;4.93;;;2.03;;
14247;SDS011;7208;49.826;6.004;2024-03-23T12:24:28;2.30;;;1.23;;
14247;SDS011;7208;49.826;6.004;2024-03-23T12:26:55;4.93;;;2.87;;
14247;SDS011;7208;49.826;6.004;2024-03-23T12:29:21;6.13;;;4.00;;
14247;SDS011;7208;49.826;6.004;2024-03-23T12:31:47;7.30;;;4.10;;
14247;SDS011;7208;49.826;6.004;2024-03-23T12:34:13;3.37;;;1.63;;
14247;SDS011;7208;49.826;6.004;2024-03-23T12:36:39;12.10;;;6.37;;
14247;SDS011;7208;49.826;6.004;2024-03-23T12:39:05;4.50;;;2.47;;
14247;SDS011;7208;49.826;6.004;2024-03-23T12:41:32;4.10;;;1.57;;
14247;SDS011;7208;49.826;6.004;2024-03-23T12:43:58;2.80;;;0.70;;
14247;SDS011;7208;49.826;6.004;2024-03-23T12:46:24;0.57;;;0.40;;
14247;SDS011;7208;49.826;6.004;2024-03-23T12:48:50;1.37;;;0.40;;
14247;SDS011;7208;49.826;6.004;2024-03-23T12:51:16;0.53;;;0.47;;
14247;SDS011;7208;49.826;6.004;2024-03-23T12:53:42;2.00;;;0.43;;
14247;SDS011;7208;49.826;6.004;2024-03-23T12:56:11;0.30;;;0.30;;
14247;SDS011;7208;49.826;6.004;2024-03-23T12:58:37;0.87;;;0.33;;
14247;SDS011;7208;49.826;6.004;2024-03-23T13:01:04;0.33;;;0.30;;
14247;SDS011;7208;49.826;6.004;2024-03-23T13:03:33;0.23;;;0.23;;
14247;SDS011;7208;49.826;6.004;2024-03-23T13:05:59;0.30;;;0.30;;
14247;SDS011;7208;49.826;6.004;2024-03-23T13:08:25;0.40;;;0.40;;
14247;SDS011;7208;49.826;6.004;2024-03-23T13:10:51;0.30;;;0.30;;
14247;SDS011;7208;49.826;6.004;2024-03-23T13:13:17;0.30;;;0.30;;
14247;SDS011;7208;49.826;6.004;2024-03-23T13:15:52;1.20;;;0.40;;
14247;SDS011;7208;49.826;6.004;2024-03-23T13:18:19;0.30;;;0.30;;
14247;SDS011;7208;49.826;6.004;2024-03-23T13:20:45;0.30;;;0.30;;
14247;SDS011;7208;49.826;6.004;2024-03-23T13:23:11;0.27;;;0.27;;
14247;SDS011;7208;49.826;6.004;2024-03-23T13:25:37;0.30;;;0.30;;
14247;SDS011;7208;49.826;6.004;2024-03-23T13:28:03;0.63;;;0.40;;
14247;SDS011;7208;49.826;6.004;2024-03-23T13:30:31;0.40;;;0.30;;
14247;SDS011;7208;49.826;6.004;2024-03-23T13:32:57;0.53;;;0.30;;
14247;SDS011;7208;49.826;6.004;2024-03-23T13:35:23;0.77;;;0.57;;
14247;SDS011;7208;49.826;6.004;2024-03-23T13:37:49;0.30;;;0.30;;
14247;SDS011;7208;49.826;6.004;2024-03-23T13:40:15;0.20;;;0.20;;
14247;SDS011;7208;49.826;6.004;2024-03-23T13:42:41;2.03;;;1.93;;
14247;SDS011;7208;49.826;6.004;2024-03-23T13:45:07;0.40;;;0.40;;
14247;SDS011;7208;49.826;6.004;2024-03-23T13:47:36;0.30;;;0.30;;
14247;SDS011;7208;49.826;6.004;2024-03-23T13:50:02;0.40;;;0.40;;
14247;SDS011;7208;49.826;6.004;2024-03-23T13:52:29;0.30;;;0.30;;
14247;SDS011;7208;49.826;6.004;2024-03-23T13:54:56;1.10;;;0.50;;
14247;SDS011;7208;49.826;6.004;2024-03-23T13:57:22;0.63;;;0.63;;
14247;SDS011;7208;49.826;6.004;2024-03-23T13:59:51;1.23;;;1.07;;
14247;SDS011;7208;49.826;6.004;2024-03-23T14:02:17;0.20;;;0.20;;
14247;SDS011;7208;49.826;6.004;2024-03-23T14:04:43;0.40;;;0.40;;
14247;SDS011;7208;49.826;6.004;2024-03-23T14:07:09;2.67;;;0.50;;
14247;SDS011;7208;49.826;6.004;2024-03-23T14:09:35;0.40;;;0.40;;
14247;SDS011;7208;49.826;6.004;2024-03-23T14:12:01;1.00;;;0.63;;
14247;SDS011;7208;49.826;6.004;2024-03-23T14:14:28;3.57;;;0.60;;
14247;SDS011;7208;49.826;6.004;2024-03-23T14:16:54;0.30;;;0.30;;
14247;SDS011;7208;49.826;6.004;2024-03-23T14:19:20;3.30;;;1.90;;
14247;SDS011;7208;49.826;6.004;2024-03-23T14:21:46;1.27;;;0.37;;
14247;SDS011;7208;49.826;6.004;2024-03-23T14:24:12;2.43;;;0.80;;
14247;SDS011;7208;49.826;6.004;2024-03-23T14:26:38;0.90;;;0.50;;
14247;SDS011;7208;49.826;6.004;2024-03-23T14:29:06;1.37;;;0.30;;
14247;SDS011;7208;49.826;6.004;2024-03-23T14:31:35;0.53;;;0.30;;
14247;SDS011;7208;49.826;6.004;2024-03-23T14:34:21;3.67;;;1.20;;
14247;SDS011;7208;49.826;6.004;2024-03-23T14:36:47;0.40;;;0.40;;
14247;SDS011;7208;49.826;6.004;2024-03-23T14:39:13;1.13;;;0.70;;
14247;SDS011;7208;49.826;6.004;2024-03-23T14:41:40;1.07;;;0.50;;
14247;SDS011;7208;49.826;6.004;2024-03-23T14:44:06;0.67;;;0.50;;
14247;SDS011;7208;49.826;6.004;2024-03-23T14:46:35;1.13;;;0.90;;
14247;SDS011;7208;49.826;6.004;2024-03-23T14:49:24;4.13;;;2.97;;
14247;SDS011;7208;49.826;6.004;2024-03-23T14:51:54;0.87;;;0.87;;
14247;SDS011;7208;49.826;6.004;2024-03-23T14:54:40;1.57;;;1.47;;
14247;SDS011;7208;49.826;6.004;2024-03-23T14:57:06;0.37;;;0.30;;
14247;SDS011;7208;49.826;6.004;2024-03-23T14:59:34;0.80;;;0.50;;
14247;SDS011;7208;49.826;6.004;2024-03-23T15:02:00;0.30;;;0.30;;
14247;SDS011;7208;49.826;6.004;2024-03-23T15:04:26;0.50;;;0.50;;
14247;SDS011;7208;49.826;6.004;2024-03-23T15:06:53;2.73;;;0.40;;
14247;SDS011;7208;49.826;6.004;2024-03-23T15:09:19;0.57;;;0.57;;
14247;SDS011;7208;49.826;6.004;2024-03-23T15:11:45;1.27;;;0.80;;
14247;SDS011;7208;49.826;6.004;2024-03-23T15:14:11;0.33;;;0.33;;
14247;SDS011;7208;49.826;6.004;2024-03-23T15:16:37;1.27;;;0.87;;
14247;SDS011;7208;49.826;6.004;2024-03-23T15:19:03;0.63;;;0.63;;
14247;SDS011;7208;49.826;6.004;2024-03-23T15:21:31;2.13;;;1.30;;
14247;SDS011;7208;49.826;6.004;2024-03-23T15:23:57;1.40;;;0.83;;
14247;SDS011;7208;49.826;6.004;2024-03-23T15:26:23;0.30;;;0.30;;
14247;SDS011;7208;49.826;6.004;2024-03-23T15:28:50;0.20;;;0.20;;
14247;SDS011;7208;49.826;6.004;2024-03-23T15:31:18;0.20;;;0.20;;
14247;SDS011;7208;49.826;6.004;2024-03-23T15:33:44;1.90;;;0.50;;
14247;SDS011;7208;49.826;6.004;2024-03-23T15:36:11;0.20;;;0.20;;
14247;SDS011;7208;49.826;6.004;2024-03-23T15:38:37;0.20;;;0.20;;
14247;SDS011;7208;49.826;6.004;2024-03-23T15:41:06;0.20;;;0.20;;
14247;SDS011;7208;49.826;6.004;2024-03-23T15:43:35;0.30;;;0.30;;
14247;SDS011;7208;49.826;6.004;2024-03-23T15:46:03;0.60;;;0.57;;
14247;SDS011;7208;49.826;6.004;2024-03-23T15:48:31;4.00;;;0.40;;
14247;SDS011;7208;49.826;6.004;2024-03-23T15:50:57;0.50;;;0.50;;
14247;SDS011;7208;49.826;6.004;2024-03-23T15:53:24;0.30;;;0.30;;
14247;SDS011;7208;49.826;6.004;2024-03-23T15:56:00;1.40;;;0.57;;
14247;SDS011;7208;49.826;6.004;2024-03-23T15:58:27;0.47;;;0.47;;
14247;SDS011;7208;49.826;6.004;2024-03-23T16:00:57;0.20;;;0.20;;
14247;SDS011;7208;49.826;6.004;2024-03-23T16:03:23;0.50;;;0.30;;
14247;SDS011;7208;49.826;6.004;2024-03-23T16:05:50;0.80;;;0.60;;
14247;SDS011;7208;49.826;6.004;2024-03-23T16:08:16;1.70;;;0.70;;
14247;SDS011;7208;49.826;6.004;2024-03-23T16:10:42;1.70;;;0.93;;
14247;SDS011;7208;49.826;6.004;2024-03-23T16:13:08;1.47;;;0.57;;
14247;SDS011;7208;49.826;6.004;2024-03-23T16:15:34;2.17;;;1.10;;